sensor_id;sensor_type;location;lat;lon;timestamp;pressure;altitude;pressure_sealevel;temperature;humidity
59588;BME280;45412;54.472;18.464;2023-08-31T00:02:21;98816.77;;;15.30;100.00
59588;BME280;45412;54.472;18.464;2023-08-31T00:05:08;98816.75;;;15.27;100.00
59588;BME280;45412;54.472;18.464;2023-08-31T00:07:54;98819.99;;;15.27;100.00
59588;BME280;45412;54.472;18.464;2023-08-31T00:10:40;98814.60;;;15.24;100.00
59588;BME280;45412;54.472;18.464;2023-08-31T00:13:27;98815.83;;;15.21;100.00
59588;BME280;45412;54.472;18.464;2023-08-31T00:16:15;98818.59;;;15.19;100.00
59588;BME280;45412;54.472;18.464;2023-08-31T00:19:02;98819.27;;;15.16;100.00
59588;BME280;45412;54.472;18.464;2023-08-31T00:21:48;98811.81;;;15.13;100.00
59588;BME280;45412;54.472;18.464;2023-08-31T00:24:34;98817.28;;;15.15;100.00
59588;BME280;45412;54.472;18.464;2023-08-31T00:27:23;98817.92;;;15.14;100.00
59588;BME280;45412;54.472;18.464;2023-08-31T00:30:10;98816.83;;;15.14;100.00
59588;BME280;45412;54.472;18.464;2023-08-31T00:33:00;98816.02;;;15.13;100.00
59588;BME280;45412;54.472;18.464;2023-08-31T00:35:46;98815.95;;;15.11;100.00
59588;BME280;45412;54.472;18.464;2023-08-31T00:38:33;98818.58;;;15.10;100.00
59588;BME280;45412;54.472;18.464;2023-08-31T00:41:20;98819.34;;;15.09;100.00
59588;BME280;45412;54.472;18.464;2023-08-31T00:44:06;98825.81;;;15.10;100.00
59588;BME280;45412;54.472;18.464;2023-08-31T00:46:54;98826.85;;;15.11;100.00
59588;BME280;45412;54.472;18.464;2023-08-31T00:49:40;98826.15;;;15.12;100.00
59588;BME280;45412;54.472;18.464;2023-08-31T00:52:27;98824.67;;;15.13;100.00
59588;BME280;45412;54.472;18.464;2023-08-31T00:55:13;98818.32;;;15.08;100.00
59588;BME280;45412;54.472;18.464;2023-08-31T00:58:00;98822.95;;;15.09;100.00
59588;BME280;45412;54.472;18.464;2023-08-31T01:07:34;98824.31;;;15.04;100.00
59588;BME280;45412;54.472;18.464;2023-08-31T01:13:24;98824.35;;;15.06;100.00
59588;BME280;45412;54.472;18.464;2023-08-31T01:16:12;98823.45;;;15.05;100.00
59588;BME280;45412;54.472;18.464;2023-08-31T01:19:04;98822.92;;;15.03;100.00
59588;BME280;45412;54.472;18.464;2023-08-31T01:21:54;98821.67;;;15.02;100.00
59588;BME280;45412;54.472;18.464;2023-08-31T01:24:44;98826.13;;;15.00;100.00
59588;BME280;45412;54.472;18.464;2023-08-31T01:27:32;98832.33;;;14.99;100.00
59588;BME280;45412;54.472;18.464;2023-08-31T01:30:19;98833.70;;;14.98;100.00
59588;BME280;45412;54.472;18.464;2023-08-31T01:33:06;98832.63;;;15.00;100.00
59588;BME280;45412;54.472;18.464;2023-08-31T01:35:54;98830.21;;;15.01;100.00
59588;BME280;45412;54.472;18.464;2023-08-31T01:38:45;98827.47;;;15.01;100.00
59588;BME280;45412;54.472;18.464;2023-08-31T01:41:35;98830.94;;;15.02;100.00
59588;BME280;45412;54.472;18.464;2023-08-31T01:44:23;98833.10;;;15.03;100.00
59588;BME280;45412;54.472;18.464;2023-08-31T01:47:13;98832.11;;;15.07;100.00
59588;BME280;45412;54.472;18.464;2023-08-31T01:50:00;98827.13;;;15.12;100.00
59588;BME280;45412;54.472;18.464;2023-08-31T01:52:46;98818.86;;;15.13;100.00
59588;BME280;45412;54.472;18.464;2023-08-31T01:55:32;98825.50;;;15.13;100.00
59588;BME280;45412;54.472;18.464;2023-08-31T01:58:19;98823.58;;;15.10;100.00
59588;BME280;45412;54.472;18.464;2023-08-31T02:01:06;98825.08;;;15.06;100.00
59588;BME280;45412;54.472;18.464;2023-08-31T02:03:52;98822.55;;;15.05;100.00
59588;BME280;45412;54.472;18.464;2023-08-31T02:06:39;98819.30;;;15.05;100.00
59588;BME280;45412;54.472;18.464;2023-08-31T02:09:26;98821.34;;;15.06;100.00
59588;BME280;45412;54.472;18.464;2023-08-31T02:12:12;98819.45;;;15.07;100.00
59588;BME280;45412;54.472;18.464;2023-08-31T02:14:59;98817.65;;;15.06;100.00
59588;BME280;45412;54.472;18.464;2023-08-31T02:17:45;98818.45;;;15.04;100.00
59588;BME280;45412;54.472;18.464;2023-08-31T02:20:34;98817.08;;;15.01;100.00
59588;BME280;45412;54.472;18.464;2023-08-31T02:23:20;98813.19;;;15.00;100.00
59588;BME280;45412;54.472;18.464;2023-08-31T02:26:06;98813.78;;;14.99;100.00
59588;BME280;45412;54.472;18.464;2023-08-31T02:28:52;98813.76;;;14.99;100.00
59588;BME280;45412;54.472;18.464;2023-08-31T02:31:39;98813.92;;;14.99;100.00
59588;BME280;45412;54.472;18.464;2023-08-31T02:34:25;98812.55;;;14.99;100.00
59588;BME280;45412;54.472;18.464;2023-08-31T02:37:11;98814.79;;;15.00;100.00
59588;BME280;45412;54.472;18.464;2023-08-31T02:39:58;98814.25;;;15.00;100.00
59588;BME280;45412;54.472;18.464;2023-08-31T02:42:44;98814.52;;;14.99;100.00
59588;BME280;45412;54.472;18.464;2023-08-31T02:45:35;98814.20;;;14.97;100.00
59588;BME280;45412;54.472;18.464;2023-08-31T02:48:21;98805.39;;;14.88;100.00
59588;BME280;45412;54.472;18.464;2023-08-31T02:51:08;98821.06;;;14.93;100.00
59588;BME280;45412;54.472;18.464;2023-08-31T02:53:55;98823.23;;;14.93;100.00
59588;BME280;45412;54.472;18.464;2023-08-31T02:56:41;98823.20;;;14.93;100.00
59588;BME280;45412;54.472;18.464;2023-08-31T02:59:27;98820.41;;;14.94;100.00
59588;BME280;45412;54.472;18.464;2023-08-31T03:02:14;98827.41;;;14.94;100.00
59588;BME280;45412;54.472;18.464;2023-08-31T03:05:01;98831.38;;;14.92;100.00
59588;BME280;45412;54.472;18.464;2023-08-31T03:07:48;98835.70;;;14.90;100.00
59588;BME280;45412;54.472;18.464;2023-08-31T03:10:35;98831.54;;;14.87;100.00
59588;BME280;45412;54.472;18.464;2023-08-31T03:13:21;98830.06;;;14.83;100.00
59588;BME280;45412;54.472;18.464;2023-08-31T03:16:08;98836.30;;;14.81;100.00
59588;BME280;45412;54.472;18.464;2023-08-31T03:18:54;98837.88;;;14.80;100.00
59588;BME280;45412;54.472;18.464;2023-08-31T03:21:40;98837.89;;;14.79;100.00
59588;BME280;45412;54.472;18.464;2023-08-31T03:24:27;98838.60;;;14.75;100.00
59588;BME280;45412;54.472;18.464;2023-08-31T03:27:15;98837.31;;;14.73;100.00
59588;BME280;45412;54.472;18.464;2023-08-31T03:30:06;98834.16;;;14.69;100.00
59588;BME280;45412;54.472;18.464;2023-08-31T03:32:52;98837.30;;;14.63;100.00
59588;BME280;45412;54.472;18.464;2023-08-31T03:35:38;98847.37;;;14.59;100.00
59588;BME280;45412;54.472;18.464;2023-08-31T03:38:24;98849.08;;;14.57;100.00
59588;BME280;45412;54.472;18.464;2023-08-31T03:41:11;98852.50;;;14.55;100.00
59588;BME280;45412;54.472;18.464;2023-08-31T03:43:58;98849.59;;;14.54;100.00
59588;BME280;45412;54.472;18.464;2023-08-31T03:46:45;98844.23;;;14.56;100.00
59588;BME280;45412;54.472;18.464;2023-08-31T03:49:32;98844.58;;;14.56;100.00
59588;BME280;45412;54.472;18.464;2023-08-31T03:52:19;98845.39;;;14.55;100.00
59588;BME280;45412;54.472;18.464;2023-08-31T03:55:07;98844.06;;;14.57;100.00
59588;BME280;45412;54.472;18.464;2023-08-31T03:57:54;98843.16;;;14.57;100.00
59588;BME280;45412;54.472;18.464;2023-08-31T04:00:41;98852.41;;;14.59;100.00
59588;BME280;45412;54.472;18.464;2023-08-31T04:03:28;98851.23;;;14.58;100.00
59588;BME280;45412;54.472;18.464;2023-08-31T04:06:14;98853.91;;;14.61;100.00
59588;BME280;45412;54.472;18.464;2023-08-31T04:09:01;98853.01;;;14.61;100.00
59588;BME280;45412;54.472;18.464;2023-08-31T04:11:47;98852.08;;;14.62;100.00
59588;BME280;45412;54.472;18.464;2023-08-31T04:14:33;98852.42;;;14.62;100.00
59588;BME280;45412;54.472;18.464;2023-08-31T04:17:19;98854.63;;;14.61;100.00
59588;BME280;45412;54.472;18.464;2023-08-31T04:20:06;98857.59;;;14.60;100.00
59588;BME280;45412;54.472;18.464;2023-08-31T04:22:54;98858.43;;;14.61;100.00
59588;BME280;45412;54.472;18.464;2023-08-31T04:25:40;98859.14;;;14.61;100.00
59588;BME280;45412;54.472;18.464;2023-08-31T04:28:28;98867.83;;;14.63;100.00
59588;BME280;45412;54.472;18.464;2023-08-31T04:31:14;98867.63;;;14.63;100.00
59588;BME280;45412;54.472;18.464;2023-08-31T04:34:00;98864.95;;;14.63;100.00
59588;BME280;45412;54.472;18.464;2023-08-31T04:36:46;98862.98;;;14.65;100.00
59588;BME280;45412;54.472;18.464;2023-08-31T04:39:32;98869.34;;;14.69;100.00
59588;BME280;45412;54.472;18.464;2023-08-31T04:42:18;98867.79;;;14.70;100.00
59588;BME280;45412;54.472;18.464;2023-08-31T04:45:05;98868.63;;;14.71;100.00
59588;BME280;45412;54.472;18.464;2023-08-31T04:47:52;98866.62;;;14.69;100.00
59588;BME280;45412;54.472;18.464;2023-08-31T04:50:38;98868.17;;;14.67;100.00
59588;BME280;45412;54.472;18.464;2023-08-31T04:53:25;98869.75;;;14.65;100.00
59588;BME280;45412;54.472;18.464;2023-08-31T04:56:11;98872.32;;;14.63;100.00
59588;BME280;45412;54.472;18.464;2023-08-31T04:58:59;98874.89;;;14.64;100.00
59588;BME280;45412;54.472;18.464;2023-08-31T05:01:45;98871.78;;;14.63;100.00
59588;BME280;45412;54.472;18.464;2023-08-31T05:04:31;98871.48;;;14.67;100.00
59588;BME280;45412;54.472;18.464;2023-08-31T05:07:18;98866.79;;;14.71;100.00
59588;BME280;45412;54.472;18.464;2023-08-31T05:10:05;98861.04;;;14.76;100.00
59588;BME280;45412;54.472;18.464;2023-08-31T05:12:52;98862.71;;;14.80;100.00
59588;BME280;45412;54.472;18.464;2023-08-31T05:15:38;98861.27;;;14.84;100.00
59588;BME280;45412;54.472;18.464;2023-08-31T05:18:24;98867.53;;;14.88;100.00
59588;BME280;45412;54.472;18.464;2023-08-31T05:21:10;98864.11;;;14.94;100.00
59588;BME280;45412;54.472;18.464;2023-08-31T05:23:56;98863.56;;;15.01;100.00
59588;BME280;45412;54.472;18.464;2023-08-31T05:26:42;98866.98;;;15.07;100.00
59588;BME280;45412;54.472;18.464;2023-08-31T05:29:29;98862.71;;;15.14;100.00
59588;BME280;45412;54.472;18.464;2023-08-31T05:32:18;98863.31;;;15.23;100.00
59588;BME280;45412;54.472;18.464;2023-08-31T05:35:05;98861.48;;;15.34;100.00
59588;BME280;45412;54.472;18.464;2023-08-31T05:37:51;98863.59;;;15.49;100.00
59588;BME280;45412;54.472;18.464;2023-08-31T05:40:38;98865.05;;;15.70;100.00
59588;BME280;45412;54.472;18.464;2023-08-31T05:43:24;98859.02;;;15.97;100.00
59588;BME280;45412;54.472;18.464;2023-08-31T05:46:10;98861.25;;;16.26;100.00
59588;BME280;45412;54.472;18.464;2023-08-31T05:48:57;98858.20;;;16.51;99.10
59588;BME280;45412;54.472;18.464;2023-08-31T05:51:43;98862.19;;;16.64;97.91
59588;BME280;45412;54.472;18.464;2023-08-31T05:54:29;98867.55;;;16.76;96.64
59588;BME280;45412;54.472;18.464;2023-08-31T05:57:19;98871.50;;;16.77;96.23
59588;BME280;45412;54.472;18.464;2023-08-31T06:00:06;98879.64;;;16.78;95.81
59588;BME280;45412;54.472;18.464;2023-08-31T06:03:00;98879.98;;;16.76;95.11
59588;BME280;45412;54.472;18.464;2023-08-31T06:05:47;98886.52;;;16.73;94.76
59588;BME280;45412;54.472;18.464;2023-08-31T06:08:37;98894.98;;;16.69;94.66
59588;BME280;45412;54.472;18.464;2023-08-31T06:11:26;98892.39;;;16.66;94.22
59588;BME280;45412;54.472;18.464;2023-08-31T06:14:12;98888.73;;;16.64;94.16
59588;BME280;45412;54.472;18.464;2023-08-31T06:16:59;98890.48;;;16.70;94.17
59588;BME280;45412;54.472;18.464;2023-08-31T06:19:44;98890.07;;;16.79;93.98
59588;BME280;45412;54.472;18.464;2023-08-31T06:22:31;98887.38;;;16.88;93.67
59588;BME280;45412;54.472;18.464;2023-08-31T06:25:17;98887.66;;;17.01;93.19
59588;BME280;45412;54.472;18.464;2023-08-31T06:28:05;98884.41;;;17.10;91.74
59588;BME280;45412;54.472;18.464;2023-08-31T06:30:55;98884.98;;;17.20;91.27
59588;BME280;45412;54.472;18.464;2023-08-31T06:33:41;98890.13;;;17.31;91.20
59588;BME280;45412;54.472;18.464;2023-08-31T06:36:27;98896.94;;;17.37;89.60
59588;BME280;45412;54.472;18.464;2023-08-31T06:39:14;98898.17;;;17.42;89.40
59588;BME280;45412;54.472;18.464;2023-08-31T06:42:02;98894.80;;;17.49;88.51
59588;BME280;45412;54.472;18.464;2023-08-31T06:44:49;98899.70;;;17.80;89.13
59588;BME280;45412;54.472;18.464;2023-08-31T06:47:35;98900.21;;;18.87;85.93
59588;BME280;45412;54.472;18.464;2023-08-31T06:50:22;98902.42;;;19.43;82.72
59588;BME280;45412;54.472;18.464;2023-08-31T06:53:08;98903.09;;;19.94;79.51
59588;BME280;45412;54.472;18.464;2023-08-31T06:55:54;98904.55;;;20.33;75.80
59588;BME280;45412;54.472;18.464;2023-08-31T06:58:40;98900.48;;;20.30;75.33
59588;BME280;45412;54.472;18.464;2023-08-31T07:01:26;98899.05;;;20.18;75.19
59588;BME280;45412;54.472;18.464;2023-08-31T07:04:16;98896.36;;;20.10;75.70
59588;BME280;45412;54.472;18.464;2023-08-31T07:07:02;98889.34;;;20.01;75.21
59588;BME280;45412;54.472;18.464;2023-08-31T07:09:49;98889.34;;;19.92;75.70
59588;BME280;45412;54.472;18.464;2023-08-31T07:12:35;98897.75;;;19.87;75.66
59588;BME280;45412;54.472;18.464;2023-08-31T07:15:22;98901.86;;;19.87;75.59
59588;BME280;45412;54.472;18.464;2023-08-31T07:18:08;98897.45;;;19.92;75.64
59588;BME280;45412;54.472;18.464;2023-08-31T07:20:55;98898.48;;;19.99;75.68
59588;BME280;45412;54.472;18.464;2023-08-31T07:23:41;98902.35;;;20.00;74.66
59588;BME280;45412;54.472;18.464;2023-08-31T07:26:28;98905.67;;;20.04;74.66
59588;BME280;45412;54.472;18.464;2023-08-31T07:29:15;98905.03;;;20.15;73.91
59588;BME280;45412;54.472;18.464;2023-08-31T07:32:02;98900.27;;;20.47;73.00
59588;BME280;45412;54.472;18.464;2023-08-31T07:34:49;98897.58;;;20.78;72.04
59588;BME280;45412;54.472;18.464;2023-08-31T07:37:35;98903.01;;;21.02;70.07
59588;BME280;45412;54.472;18.464;2023-08-31T07:40:23;98905.11;;;21.21;70.33
59588;BME280;45412;54.472;18.464;2023-08-31T07:43:10;98908.56;;;21.58;67.98
59588;BME280;45412;54.472;18.464;2023-08-31T07:46:04;98905.23;;;21.79;67.06
59588;BME280;45412;54.472;18.464;2023-08-31T07:48:51;98906.10;;;22.01;66.31
59588;BME280;45412;54.472;18.464;2023-08-31T07:51:37;98905.61;;;22.01;65.91
59588;BME280;45412;54.472;18.464;2023-08-31T07:54:23;98911.02;;;21.71;65.97
59588;BME280;45412;54.472;18.464;2023-08-31T07:57:10;98911.00;;;21.38;66.10
59588;BME280;45412;54.472;18.464;2023-08-31T08:00:00;98916.13;;;21.08;67.20
59588;BME280;45412;54.472;18.464;2023-08-31T08:02:58;98913.75;;;20.80;68.07
59588;BME280;45412;54.472;18.464;2023-08-31T08:05:44;98916.75;;;20.58;68.81
59588;BME280;45412;54.472;18.464;2023-08-31T08:08:30;98924.95;;;20.39;69.80
59588;BME280;45412;54.472;18.464;2023-08-31T08:11:17;98924.34;;;20.25;70.67
59588;BME280;45412;54.472;18.464;2023-08-31T08:14:03;98925.02;;;20.24;71.08
59588;BME280;45412;54.472;18.464;2023-08-31T08:16:49;98929.83;;;20.27;71.27
59588;BME280;45412;54.472;18.464;2023-08-31T08:19:36;98930.51;;;20.42;71.08
59588;BME280;45412;54.472;18.464;2023-08-31T08:22:24;98936.05;;;20.58;69.93
59588;BME280;45412;54.472;18.464;2023-08-31T08:25:11;98930.21;;;20.84;70.00
59588;BME280;45412;54.472;18.464;2023-08-31T08:27:57;98927.39;;;21.00;68.15
59588;BME280;45412;54.472;18.464;2023-08-31T08:30:44;98925.17;;;21.12;67.74
59588;BME280;45412;54.472;18.464;2023-08-31T08:33:31;98921.25;;;21.43;66.12
59588;BME280;45412;54.472;18.464;2023-08-31T08:36:17;98925.54;;;21.66;64.80
59588;BME280;45412;54.472;18.464;2023-08-31T08:39:06;98928.83;;;21.66;63.94
59588;BME280;45412;54.472;18.464;2023-08-31T08:41:54;98931.67;;;21.76;64.16
59588;BME280;45412;54.472;18.464;2023-08-31T08:44:41;98937.59;;;22.39;62.56
59588;BME280;45412;54.472;18.464;2023-08-31T08:47:28;98930.48;;;23.02;60.49
59588;BME280;45412;54.472;18.464;2023-08-31T08:50:15;98937.29;;;23.23;59.24
59588;BME280;45412;54.472;18.464;2023-08-31T08:53:03;98936.62;;;23.09;59.45
59588;BME280;45412;54.472;18.464;2023-08-31T08:55:50;98941.29;;;22.88;60.00
59588;BME280;45412;54.472;18.464;2023-08-31T08:58:37;98949.55;;;22.63;60.85
59588;BME280;45412;54.472;18.464;2023-08-31T09:01:24;98944.77;;;22.31;61.49
59588;BME280;45412;54.472;18.464;2023-08-31T09:04:11;98945.05;;;22.08;62.63
59588;BME280;45412;54.472;18.464;2023-08-31T09:06:58;98948.94;;;21.91;63.03
59588;BME280;45412;54.472;18.464;2023-08-31T09:09:52;98949.73;;;22.06;62.33
59588;BME280;45412;54.472;18.464;2023-08-31T09:12:39;98957.39;;;22.02;62.58
59588;BME280;45412;54.472;18.464;2023-08-31T09:15:25;98962.11;;;22.09;62.36
59588;BME280;45412;54.472;18.464;2023-08-31T09:18:31;98963.08;;;22.19;61.25
59588;BME280;45412;54.472;18.464;2023-08-31T09:21:19;98962.86;;;22.19;60.80
59588;BME280;45412;54.472;18.464;2023-08-31T09:24:06;98967.46;;;22.23;61.42
59588;BME280;45412;54.472;18.464;2023-08-31T09:26:58;98964.92;;;22.41;59.75
59588;BME280;45412;54.472;18.464;2023-08-31T09:29:46;98967.38;;;22.57;57.15
59588;BME280;45412;54.472;18.464;2023-08-31T09:32:35;98966.14;;;22.42;56.88
59588;BME280;45412;54.472;18.464;2023-08-31T09:35:22;98970.08;;;22.54;56.77
59588;BME280;45412;54.472;18.464;2023-08-31T09:38:10;98970.34;;;22.62;57.33
59588;BME280;45412;54.472;18.464;2023-08-31T09:41:06;98971.88;;;22.70;57.40
59588;BME280;45412;54.472;18.464;2023-08-31T09:43:53;98981.39;;;22.69;57.09
59588;BME280;45412;54.472;18.464;2023-08-31T09:46:39;98983.68;;;22.36;55.91
59588;BME280;45412;54.472;18.464;2023-08-31T09:49:26;98981.05;;;22.34;56.38
59588;BME280;45412;54.472;18.464;2023-08-31T09:52:14;98980.17;;;22.45;55.37
59588;BME280;45412;54.472;18.464;2023-08-31T09:55:02;98979.98;;;22.57;55.79
59588;BME280;45412;54.472;18.464;2023-08-31T09:57:51;98976.02;;;22.80;54.82
59588;BME280;45412;54.472;18.464;2023-08-31T10:00:59;98974.98;;;23.05;53.28
59588;BME280;45412;54.472;18.464;2023-08-31T10:03:46;98976.62;;;23.26;52.95
59588;BME280;45412;54.472;18.464;2023-08-31T10:06:33;98977.41;;;23.43;53.56
59588;BME280;45412;54.472;18.464;2023-08-31T10:09:19;98976.04;;;23.42;53.24
59588;BME280;45412;54.472;18.464;2023-08-31T10:12:07;98970.55;;;23.31;53.00
59588;BME280;45412;54.472;18.464;2023-08-31T10:14:55;98964.91;;;23.17;53.33
59588;BME280;45412;54.472;18.464;2023-08-31T10:17:42;98965.73;;;23.18;53.87
59588;BME280;45412;54.472;18.464;2023-08-31T10:20:30;98963.69;;;23.35;53.60
59588;BME280;45412;54.472;18.464;2023-08-31T10:23:20;98965.34;;;23.45;53.64
59588;BME280;45412;54.472;18.464;2023-08-31T10:26:07;98969.55;;;23.46;52.90
59588;BME280;45412;54.472;18.464;2023-08-31T10:28:54;98964.98;;;23.38;52.18
59588;BME280;45412;54.472;18.464;2023-08-31T10:31:40;98960.67;;;23.19;53.02
59588;BME280;45412;54.472;18.464;2023-08-31T10:34:35;98967.46;;;23.33;52.78
59588;BME280;45412;54.472;18.464;2023-08-31T10:37:27;98958.09;;;23.32;51.61
59588;BME280;45412;54.472;18.464;2023-08-31T10:40:14;98963.05;;;23.68;51.09
59588;BME280;45412;54.472;18.464;2023-08-31T10:43:16;98957.02;;;24.03;50.27
59588;BME280;45412;54.472;18.464;2023-08-31T10:46:15;98959.48;;;24.75;49.27
59588;BME280;45412;54.472;18.464;2023-08-31T10:49:15;98954.41;;;25.49;47.11
59588;BME280;45412;54.472;18.464;2023-08-31T10:52:17;98949.20;;;25.71;46.58
59588;BME280;45412;54.472;18.464;2023-08-31T10:55:24;98940.46;;;25.67;45.71
59588;BME280;45412;54.472;18.464;2023-08-31T10:58:12;98941.83;;;25.61;45.40
59588;BME280;45412;54.472;18.464;2023-08-31T11:00:58;98945.17;;;25.25;44.93
59588;BME280;45412;54.472;18.464;2023-08-31T11:03:57;98944.91;;;25.09;46.38
59588;BME280;45412;54.472;18.464;2023-08-31T11:06:44;98941.10;;;25.01;46.46
59588;BME280;45412;54.472;18.464;2023-08-31T11:09:31;98938.68;;;25.00;47.17
59588;BME280;45412;54.472;18.464;2023-08-31T11:12:22;98937.63;;;24.82;47.17
59588;BME280;45412;54.472;18.464;2023-08-31T11:15:11;98933.53;;;24.67;47.03
59588;BME280;45412;54.472;18.464;2023-08-31T11:17:58;98927.21;;;24.25;47.16
59588;BME280;45412;54.472;18.464;2023-08-31T11:20:47;98928.46;;;23.68;48.16
59588;BME280;45412;54.472;18.464;2023-08-31T11:23:35;98928.46;;;23.40;50.00
59588;BME280;45412;54.472;18.464;2023-08-31T11:26:21;98926.85;;;23.27;51.10
59588;BME280;45412;54.472;18.464;2023-08-31T11:29:08;98923.44;;;23.23;50.93
59588;BME280;45412;54.472;18.464;2023-08-31T11:31:56;98921.69;;;23.20;51.33
59588;BME280;45412;54.472;18.464;2023-08-31T11:34:45;98920.45;;;23.19;52.22
59588;BME280;45412;54.472;18.464;2023-08-31T11:37:31;98923.95;;;23.18;51.74
59588;BME280;45412;54.472;18.464;2023-08-31T11:40:18;98929.55;;;23.18;51.62
59588;BME280;45412;54.472;18.464;2023-08-31T11:43:05;98931.92;;;23.22;52.04
59588;BME280;45412;54.472;18.464;2023-08-31T11:45:52;98933.12;;;23.20;52.02
59588;BME280;45412;54.472;18.464;2023-08-31T11:48:39;98930.77;;;23.27;51.42
59588;BME280;45412;54.472;18.464;2023-08-31T11:51:26;98935.63;;;23.44;51.89
59588;BME280;45412;54.472;18.464;2023-08-31T11:54:16;98933.42;;;23.54;50.77
59588;BME280;45412;54.472;18.464;2023-08-31T11:57:06;98932.55;;;23.43;50.35
59588;BME280;45412;54.472;18.464;2023-08-31T11:59:53;98930.99;;;23.31;48.63
59588;BME280;45412;54.472;18.464;2023-08-31T12:02:39;98929.55;;;22.97;49.17
59588;BME280;45412;54.472;18.464;2023-08-31T12:05:29;98929.13;;;22.96;49.13
59588;BME280;45412;54.472;18.464;2023-08-31T12:08:15;98924.15;;;23.10;49.25
59588;BME280;45412;54.472;18.464;2023-08-31T12:11:02;98919.73;;;23.22;48.95
59588;BME280;45412;54.472;18.464;2023-08-31T12:13:50;98921.38;;;23.33;48.45
59588;BME280;45412;54.472;18.464;2023-08-31T12:16:37;98917.67;;;23.52;47.73
59588;BME280;45412;54.472;18.464;2023-08-31T12:19:27;98914.35;;;23.81;47.21
59588;BME280;45412;54.472;18.464;2023-08-31T12:22:14;98908.48;;;24.10;45.79
59588;BME280;45412;54.472;18.464;2023-08-31T12:25:00;98908.18;;;24.25;45.49
59588;BME280;45412;54.472;18.464;2023-08-31T12:27:47;98915.38;;;24.21;44.97
59588;BME280;45412;54.472;18.464;2023-08-31T12:30:33;98918.48;;;24.05;45.33
59588;BME280;45412;54.472;18.464;2023-08-31T12:33:20;98918.63;;;23.66;45.87
59588;BME280;45412;54.472;18.464;2023-08-31T12:36:08;98919.07;;;23.10;46.90
59588;BME280;45412;54.472;18.464;2023-08-31T12:38:54;98922.56;;;22.71;47.44
59588;BME280;45412;54.472;18.464;2023-08-31T12:41:41;98926.52;;;22.47;48.11
59588;BME280;45412;54.472;18.464;2023-08-31T12:44:27;98928.94;;;22.33;49.28
59588;BME280;45412;54.472;18.464;2023-08-31T12:47:13;98938.55;;;22.11;50.71
59588;BME280;45412;54.472;18.464;2023-08-31T12:49:59;98943.92;;;21.70;48.85
59588;BME280;45412;54.472;18.464;2023-08-31T12:52:46;98946.47;;;21.30;49.00
59588;BME280;45412;54.472;18.464;2023-08-31T12:55:32;98952.39;;;20.90;50.30
59588;BME280;45412;54.472;18.464;2023-08-31T12:58:18;98955.60;;;20.48;51.43
59588;BME280;45412;54.472;18.464;2023-08-31T13:01:05;98963.79;;;20.13;52.60
59588;BME280;45412;54.472;18.464;2023-08-31T13:03:51;98965.35;;;19.71;54.36
59588;BME280;45412;54.472;18.464;2023-08-31T13:06:38;98964.29;;;19.37;54.92
59588;BME280;45412;54.472;18.464;2023-08-31T13:09:24;98961.98;;;19.15;56.18
59588;BME280;45412;54.472;18.464;2023-08-31T13:12:11;98957.39;;;18.98;56.81
59588;BME280;45412;54.472;18.464;2023-08-31T13:14:59;98956.42;;;18.75;57.29
59588;BME280;45412;54.472;18.464;2023-08-31T13:17:46;98956.48;;;18.41;58.78
59588;BME280;45412;54.472;18.464;2023-08-31T13:20:32;98964.52;;;18.13;61.08
59588;BME280;45412;54.472;18.464;2023-08-31T13:23:20;98971.85;;;17.78;64.31
59588;BME280;45412;54.472;18.464;2023-08-31T13:26:07;98976.80;;;17.43;67.51
59588;BME280;45412;54.472;18.464;2023-08-31T13:28:53;98989.50;;;17.05;70.93
59588;BME280;45412;54.472;18.464;2023-08-31T13:31:40;98993.28;;;16.68;73.05
59588;BME280;45412;54.472;18.464;2023-08-31T13:34:26;98992.31;;;16.33;76.09
59588;BME280;45412;54.472;18.464;2023-08-31T13:37:12;99001.27;;;16.12;78.04
59588;BME280;45412;54.472;18.464;2023-08-31T13:39:59;99005.96;;;15.94;79.49
59588;BME280;45412;54.472;18.464;2023-08-31T13:42:57;99014.54;;;15.74;81.90
59588;BME280;45412;54.472;18.464;2023-08-31T13:45:47;99014.98;;;15.50;83.82
59588;BME280;45412;54.472;18.464;2023-08-31T13:48:33;99020.20;;;15.28;84.97
59588;BME280;45412;54.472;18.464;2023-08-31T13:51:20;99026.97;;;15.14;86.42
59588;BME280;45412;54.472;18.464;2023-08-31T13:54:07;99026.55;;;15.01;87.73
59588;BME280;45412;54.472;18.464;2023-08-31T13:56:53;99027.70;;;14.91;88.61
59588;BME280;45412;54.472;18.464;2023-08-31T13:59:40;99038.89;;;14.85;89.79
59588;BME280;45412;54.472;18.464;2023-08-31T14:02:26;99050.23;;;14.77;91.06
59588;BME280;45412;54.472;18.464;2023-08-31T14:05:13;99058.54;;;14.72;91.93
59588;BME280;45412;54.472;18.464;2023-08-31T14:08:00;99059.60;;;14.68;92.53
59588;BME280;45412;54.472;18.464;2023-08-31T14:10:53;99062.19;;;14.62;93.92
59588;BME280;45412;54.472;18.464;2023-08-31T14:13:43;99060.71;;;14.55;93.82
59588;BME280;45412;54.472;18.464;2023-08-31T14:16:30;99056.17;;;14.55;94.37
59588;BME280;45412;54.472;18.464;2023-08-31T14:19:16;99055.80;;;14.61;94.30
59588;BME280;45412;54.472;18.464;2023-08-31T14:22:02;99061.80;;;14.72;94.98
59588;BME280;45412;54.472;18.464;2023-08-31T14:24:49;99069.36;;;14.86;95.01
59588;BME280;45412;54.472;18.464;2023-08-31T14:27:35;99066.76;;;14.97;95.18
59588;BME280;45412;54.472;18.464;2023-08-31T14:30:22;99073.92;;;15.04;95.09
59588;BME280;45412;54.472;18.464;2023-08-31T14:33:08;99075.95;;;15.12;95.05
59588;BME280;45412;54.472;18.464;2023-08-31T14:35:55;99082.05;;;15.08;94.41
59588;BME280;45412;54.472;18.464;2023-08-31T14:38:41;99079.03;;;15.02;94.73
59588;BME280;45412;54.472;18.464;2023-08-31T14:41:30;99079.30;;;15.01;94.97